Aeroboteco Virtual Airline

Aeroboteco Virtual Airlines! Uma nuvem a frente.



 INFORMAÇÕES METEOROLÓGICAS
METAR FOR LEBG
ADDS - METARS form results

(1545 UTC 20 January 2019)
Data provider http://aviationweather.gov/metar/data/
 
METAR text: LEBG 201530Z 32011KT 290V350 9999 FEW022 SCT044 05/03 Q1015
Conditions at: LEBG (BURGOS/VILLAFRIA, ES) observed 1530 UTC 20 January 2019
Temperature: 5.0°C (41°F)
Dewpoint: 3.0°C (37°F) [RH = 87%]
Pressure (altimeter): 29.97 inches Hg (1015.0 mb)
Winds: from the NW (320 degrees) at 13 MPH (11 knots; 5.7 m/s)
Visibility: 6 or more miles (10+ km)
Ceiling: at least 12,000 feet AGL
Clouds: few clouds at 2200 feet AGL
scattered clouds at 4400 feet AGL
Weather: no significant weather observed at this time

METAR text: LEBG 201500Z 34012KT 300V010 9999 FEW015 SCT022 05/02 Q1015
Conditions at: LEBG (BURGOS/VILLAFRIA, ES) observed 1500 UTC 20 January 2019
Temperature: 5.0°C (41°F)
Dewpoint: 2.0°C (36°F) [RH = 81%]
Pressure (altimeter): 29.97 inches Hg (1015.0 mb)
Winds: from the NNW (340 degrees) at 14 MPH (12 knots; 6.2 m/s)
Visibility: 6 or more miles (10+ km)
Ceiling: at least 12,000 feet AGL
Clouds: few clouds at 1500 feet AGL
scattered clouds at 2200 feet AGL
Weather: no significant weather observed at this time

Forecast for: LEBG (BURGOS/VILLAFRIA, ES)
Text: TAF LEBG 201400Z 2015/2024 35012KT 9999 BKN020
Forecast period: 1500 UTC 20 January 2019 to 0000 UTC 21 January 2019
Forecast type: FROM: standard forecast or significant change
Winds: from the N (350 degrees) at 14 MPH (12 knots; 6.2 m/s)
Visibility: 6 or more miles 10+ km)
Ceiling: 2000 feet AGL
Clouds: broken clouds at 2000 feet AGL
Weather: no significant weather forecast for this period
Text: PROB30
Forecast period: 1500 to 1800 UTC 20 January 2019
Forecast type: TEMPORARY: The following changes expected for less than half the time period
Winds: from the N (350 degrees) at 17 MPH (15 knots; 7.7 m/s)
gusting to 29 MPH (25 knots; 12.9 m/s)
Visibility: missing
Ceiling: unknown
Clouds: missing
Weather: no significant weather forecast for this period
Text: TEMPO 2015/2018 35015G25KT
Forecast period: 1500 UTC 20 January 2019 to 0000 UTC 21 January 2019
Forecast type: TEMPORARY: The following changes expected for less than half the time period
Visibility: 1.86 miles (2.99 km)
Ceiling: 900 feet AGL
Clouds: overcast cloud deck at 900 feet AGL
Weather: SN DZ  (moderate snow, moderate drizzle)

 MAPA DO AEROPORTO

 INFORMAÇÕES DA PISTA
Pista 06 Tamanho da pista 4393 ft Largura da pista 98 ft
Elevação da pista 2907 ft Ranhura da pista 0 ft Proa da pista 56
Pista 24 Tamanho da pista 4393 ft Largura da pista 98 ft
Elevação da pista 2945 ft Ranhura da pista 0 ft Proa da pista 236

 FREQUÊNCIAS DO AEROPORTO
Tipo UNIC Nome UNIC Frequência 122.4 MHZ

 AUXÍLIOS DE NAVEGAÇÃO PRÓXIMOS AO AEROPORTO
Tipo NDB Nome Burgos Frequência 357 KHZ
Tipo VOR-DME Nome Burgos Frequência 111400 KHZ